Terminal Aerodrome Forecast
Issued by NWS Sioux Falls, SD

Home | Current Version | Previous Version | Graphics & Text | Print | Product List | Glossary On
Versions: 1 2 3 4 5 6 7 8 9 10 11 12 13
865
FTUS43 KFSD 170530
TAFHON
TAF
KHON 170530Z 1706/1806 29006KT P6SM SKC
     FM171900 24005KT P6SM SKC
     FM172100 18006KT P6SM SCT090
     FM180000 15006KT P6SM BKN080=

USA.gov is the U.S. government's official web portal to all federal, state and local government web resources and services.